AKJ839Q VIDP-VAAH
Flight info
| Callsign | AKJ839Q |
|---|---|
| Flight time | 1h 7m |
| Altitude | 36000 |
| Route | DUDUM7G DUDUM A474 NIKOT Q5 UUD UUD1A |
| Aircraft | B38M/M-SDE1FGHILORVWXY/HB1 |
Departure
| Time | 2026-05-05 09:27 |
|---|---|
| Airport | Indira Gandhi International Airport (VIDP) |
Arrival
| Time | 2026-05-05 10:34 |
|---|---|
| Airport | Sardar Vallabh Patel International Airport (VAAH) |
| Time | Latitude | Longitude | Altitude | Speed | Heading |
|---|---|---|---|---|---|
| 2026-05-05 09:00 | 28.55584 | 77.08117 | 776 ft | 0 kts | 149° |
| 2026-05-05 09:00 | 28.55646 | 77.08206 | 776 ft | 0 kts | 150° |
| 2026-05-05 09:16 | 28.55661 | 77.08193 | 776 ft | 4 kts | 107° |
| 2026-05-05 09:16 | 28.55662 | 77.08189 | 776 ft | 4 kts | 26° |
| 2026-05-05 09:16 | 28.55649 | 77.08179 | 776 ft | 4 kts | 106° |
| 2026-05-05 09:16 | 28.55659 | 77.08168 | 776 ft | 4 kts | 167° |
| 2026-05-05 09:17 | 28.55683 | 77.08172 | 776 ft | 4 kts | 192° |
| 2026-05-05 09:17 | 28.55693 | 77.08174 | 776 ft | 1 kts | 187° |
| 2026-05-05 09:21 | 28.55681 | 77.08166 | 776 ft | 4 kts | 220° |
| 2026-05-05 09:21 | 28.55681 | 77.08132 | 776 ft | 6 kts | 314° |
| 2026-05-05 09:22 | 28.55692 | 77.08086 | 776 ft | 8 kts | 240° |
| 2026-05-05 09:22 | 28.55655 | 77.08014 | 776 ft | 13 kts | 239° |
| 2026-05-05 09:22 | 28.55623 | 77.07902 | 776 ft | 17 kts | 284° |
| 2026-05-05 09:22 | 28.55581 | 77.07849 | 776 ft | 12 kts | 178° |
| 2026-05-05 09:23 | 28.55482 | 77.07827 | 775 ft | 17 kts | 195° |
| 2026-05-05 09:23 | 28.55348 | 77.07790 | 775 ft | 22 kts | 194° |
| 2026-05-05 09:23 | 28.55278 | 77.07702 | 775 ft | 16 kts | 268° |
| 2026-05-05 09:23 | 28.55183 | 77.07632 | 775 ft | 17 kts | 220° |
| 2026-05-05 09:24 | 28.55181 | 77.07541 | 775 ft | 19 kts | 285° |
| 2026-05-05 09:24 | 28.55221 | 77.07375 | 775 ft | 24 kts | 284° |
| 2026-05-05 09:24 | 28.55169 | 77.07222 | 773 ft | 17 kts | 269° |
| 2026-05-05 09:24 | 28.55185 | 77.07124 | 773 ft | 20 kts | 285° |
| 2026-05-05 09:25 | 28.55227 | 77.06951 | 773 ft | 19 kts | 285° |
| 2026-05-05 09:25 | 28.55169 | 77.06879 | 770 ft | 18 kts | 192° |
| 2026-05-05 09:25 | 28.55020 | 77.06839 | 761 ft | 21 kts | 164° |
| 2026-05-05 09:25 | 28.54991 | 77.06961 | 762 ft | 19 kts | 104° |
| 2026-05-05 09:26 | 28.54986 | 77.06983 | 762 ft | 0 kts | 104° |
| 2026-05-05 09:26 | 28.54980 | 77.07011 | 762 ft | 23 kts | 104° |
| 2026-05-05 09:26 | 28.54871 | 77.07503 | 765 ft | 103 kts | 104° |
| 2026-05-05 09:27 | 28.54643 | 77.08547 | 766 ft | 166 kts | 103° |
| 2026-05-05 09:27 | 28.54410 | 77.09642 | 1090 ft | 188 kts | 102° |
| 2026-05-05 09:27 | 28.54088 | 77.11102 | 2073 ft | 183 kts | 104° |
| 2026-05-05 09:27 | 28.53670 | 77.12481 | 2897 ft | 196 kts | 120° |
| 2026-05-05 09:28 | 28.52608 | 77.13557 | 3407 ft | 221 kts | 156° |
| 2026-05-05 09:28 | 28.51017 | 77.13679 | 3987 ft | 244 kts | 192° |
| 2026-05-05 09:28 | 28.49346 | 77.13237 | 4978 ft | 249 kts | 191° |
| 2026-05-05 09:28 | 28.47627 | 77.12857 | 6006 ft | 253 kts | 192° |
| 2026-05-05 09:29 | 28.45870 | 77.12467 | 6707 ft | 261 kts | 192° |
| 2026-05-05 09:29 | 28.44092 | 77.12073 | 7152 ft | 259 kts | 192° |
| 2026-05-05 09:29 | 28.42312 | 77.11676 | 8118 ft | 262 kts | 193° |
| 2026-05-05 09:29 | 28.40511 | 77.11275 | 9067 ft | 266 kts | 193° |
| 2026-05-05 09:30 | 28.38678 | 77.10866 | 9972 ft | 271 kts | 194° |
| 2026-05-05 09:30 | 28.36805 | 77.10450 | 10861 ft | 275 kts | 193° |
| 2026-05-05 09:30 | 28.34899 | 77.10024 | 11620 ft | 287 kts | 193° |
| 2026-05-05 09:30 | 28.32884 | 77.09566 | 12242 ft | 302 kts | 196° |
| 2026-05-05 09:31 | 28.30941 | 77.08554 | 12722 ft | 315 kts | 220° |
| 2026-05-05 09:31 | 28.29309 | 77.06823 | 13295 ft | 328 kts | 226° |
| 2026-05-05 09:31 | 28.27641 | 77.04997 | 13978 ft | 337 kts | 226° |
| 2026-05-05 09:31 | 28.25960 | 77.03142 | 14797 ft | 339 kts | 226° |
| 2026-05-05 09:32 | 28.24265 | 77.01260 | 15565 ft | 343 kts | 226° |
| 2026-05-05 09:32 | 28.22551 | 76.99353 | 16329 ft | 347 kts | 226° |
| 2026-05-05 09:32 | 28.20821 | 76.97428 | 17083 ft | 351 kts | 226° |
| 2026-05-05 09:32 | 28.19071 | 76.95479 | 17807 ft | 355 kts | 227° |
| 2026-05-05 09:33 | 28.17303 | 76.93512 | 18483 ft | 358 kts | 226° |
| 2026-05-05 09:33 | 28.15513 | 76.91520 | 19081 ft | 362 kts | 227° |
| 2026-05-05 09:33 | 28.13706 | 76.89512 | 19710 ft | 365 kts | 226° |
| 2026-05-05 09:33 | 28.11883 | 76.87486 | 20314 ft | 369 kts | 227° |
| 2026-05-05 09:34 | 28.10042 | 76.85441 | 20903 ft | 373 kts | 227° |
| 2026-05-05 09:34 | 28.08182 | 76.83376 | 21483 ft | 376 kts | 227° |
| 2026-05-05 09:34 | 28.06305 | 76.81293 | 22057 ft | 380 kts | 226° |
| 2026-05-05 09:34 | 28.04409 | 76.79190 | 22617 ft | 383 kts | 226° |
| 2026-05-05 09:35 | 28.02495 | 76.77069 | 23179 ft | 387 kts | 226° |
| 2026-05-05 09:35 | 27.98640 | 76.72800 | 24144 ft | 393 kts | 227° |
| 2026-05-05 09:35 | 27.96678 | 76.70628 | 24618 ft | 396 kts | 227° |
| 2026-05-05 09:36 | 27.94704 | 76.68445 | 25075 ft | 399 kts | 227° |
| 2026-05-05 09:36 | 27.92712 | 76.66243 | 25519 ft | 401 kts | 227° |
| 2026-05-05 09:36 | 27.90710 | 76.64032 | 25973 ft | 404 kts | 227° |
| 2026-05-05 09:36 | 27.88696 | 76.61807 | 26434 ft | 406 kts | 227° |
| 2026-05-05 09:37 | 27.86670 | 76.59571 | 26875 ft | 408 kts | 227° |
| 2026-05-05 09:37 | 27.84632 | 76.57323 | 27314 ft | 410 kts | 227° |
| 2026-05-05 09:37 | 27.82583 | 76.55064 | 27735 ft | 413 kts | 227° |
| 2026-05-05 09:37 | 27.80519 | 76.52800 | 28169 ft | 415 kts | 226° |
| 2026-05-05 09:38 | 27.78177 | 76.50850 | 28601 ft | 422 kts | 216° |
| 2026-05-05 09:38 | 27.75728 | 76.49021 | 29010 ft | 423 kts | 218° |
| 2026-05-05 09:38 | 27.73275 | 76.47160 | 29409 ft | 426 kts | 218° |
| 2026-05-05 09:38 | 27.70807 | 76.45297 | 29816 ft | 428 kts | 218° |
| 2026-05-05 09:39 | 27.68321 | 76.43424 | 30166 ft | 431 kts | 218° |
| 2026-05-05 09:39 | 27.65824 | 76.41545 | 30496 ft | 433 kts | 218° |
| 2026-05-05 09:39 | 27.63314 | 76.39656 | 30832 ft | 434 kts | 218° |
| 2026-05-05 09:39 | 27.60792 | 76.37761 | 31153 ft | 437 kts | 219° |
| 2026-05-05 09:40 | 27.58264 | 76.35861 | 31497 ft | 438 kts | 219° |
| 2026-05-05 09:40 | 27.55720 | 76.33951 | 31816 ft | 440 kts | 219° |
| 2026-05-05 09:40 | 27.53162 | 76.32033 | 32143 ft | 442 kts | 218° |
| 2026-05-05 09:40 | 27.50524 | 76.30220 | 32453 ft | 445 kts | 217° |
| 2026-05-05 09:41 | 27.47869 | 76.28408 | 32758 ft | 447 kts | 217° |
| 2026-05-05 09:41 | 27.45207 | 76.26582 | 33000 ft | 450 kts | 217° |
| 2026-05-05 09:41 | 27.42534 | 76.24744 | 33332 ft | 450 kts | 217° |
| 2026-05-05 09:41 | 27.39852 | 76.22903 | 33625 ft | 452 kts | 217° |
| 2026-05-05 09:42 | 27.37172 | 76.21063 | 33997 ft | 451 kts | 217° |
| 2026-05-05 09:42 | 27.34501 | 76.19230 | 34356 ft | 449 kts | 217° |
| 2026-05-05 09:42 | 27.31835 | 76.17402 | 34649 ft | 449 kts | 218° |
| 2026-05-05 09:42 | 27.29200 | 76.15595 | 34906 ft | 449 kts | 218° |
| 2026-05-05 09:43 | 27.26499 | 76.13745 | 35298 ft | 448 kts | 218° |
| 2026-05-05 09:43 | 27.23876 | 76.11950 | 35618 ft | 447 kts | 218° |
| 2026-05-05 09:43 | 27.21221 | 76.10133 | 35824 ft | 448 kts | 218° |
| 2026-05-05 09:43 | 27.18556 | 76.08310 | 35894 ft | 448 kts | 218° |
| 2026-05-05 09:44 | 27.13240 | 76.04678 | 35890 ft | 447 kts | 218° |
| 2026-05-05 09:44 | 27.07928 | 76.01053 | 35894 ft | 447 kts | 218° |
| 2026-05-05 09:45 | 27.02620 | 75.97433 | 35894 ft | 447 kts | 218° |
| 2026-05-05 09:45 | 26.97323 | 75.93826 | 35899 ft | 447 kts | 218° |
| 2026-05-05 09:46 | 26.92004 | 75.90208 | 35907 ft | 447 kts | 218° |
| 2026-05-05 09:46 | 26.86680 | 75.86590 | 35908 ft | 447 kts | 218° |
| 2026-05-05 09:47 | 26.81219 | 75.83201 | 35901 ft | 457 kts | 207° |
| 2026-05-05 09:47 | 26.75256 | 75.80702 | 35906 ft | 458 kts | 208° |
| 2026-05-05 09:48 | 26.69295 | 75.78168 | 35903 ft | 458 kts | 207° |
| 2026-05-05 09:48 | 26.63330 | 75.75639 | 35901 ft | 459 kts | 207° |
| 2026-05-05 09:49 | 26.57362 | 75.73113 | 35888 ft | 459 kts | 207° |
| 2026-05-05 09:49 | 26.51388 | 75.70587 | 35884 ft | 459 kts | 207° |
| 2026-05-05 09:50 | 26.45456 | 75.68081 | 35880 ft | 459 kts | 207° |
| 2026-05-05 09:50 | 26.39478 | 75.65559 | 35874 ft | 459 kts | 207° |
| 2026-05-05 09:51 | 26.33495 | 75.63037 | 35872 ft | 459 kts | 207° |
| 2026-05-05 09:51 | 26.27514 | 75.60519 | 35874 ft | 460 kts | 207° |
| 2026-05-05 09:52 | 26.21528 | 75.58002 | 35874 ft | 460 kts | 207° |
| 2026-05-05 09:52 | 26.15540 | 75.55487 | 35876 ft | 460 kts | 207° |
| 2026-05-05 09:53 | 26.09555 | 75.52975 | 35884 ft | 460 kts | 207° |
| 2026-05-05 09:53 | 26.03565 | 75.50465 | 35884 ft | 460 kts | 207° |
| 2026-05-05 09:54 | 25.97577 | 75.47957 | 35893 ft | 460 kts | 207° |
| 2026-05-05 09:54 | 25.91578 | 75.45447 | 35887 ft | 460 kts | 208° |
| 2026-05-05 09:55 | 25.88771 | 75.43864 | 35881 ft | 446 kts | 223° |
| 2026-05-05 09:55 | 25.86494 | 75.41613 | 35890 ft | 436 kts | 232° |
| 2026-05-05 09:55 | 25.82309 | 75.36719 | 35883 ft | 437 kts | 233° |
| 2026-05-05 09:56 | 25.78220 | 75.31736 | 35881 ft | 436 kts | 234° |
| 2026-05-05 09:56 | 25.74164 | 75.26732 | 35882 ft | 436 kts | 234° |
| 2026-05-05 09:57 | 25.70109 | 75.21724 | 35883 ft | 436 kts | 234° |
| 2026-05-05 09:57 | 25.66051 | 75.16718 | 35881 ft | 437 kts | 234° |
| 2026-05-05 09:58 | 25.61990 | 75.11713 | 35877 ft | 437 kts | 234° |
| 2026-05-05 09:58 | 25.57928 | 75.06713 | 35876 ft | 437 kts | 234° |
| 2026-05-05 09:59 | 25.53859 | 75.01710 | 35875 ft | 437 kts | 234° |
| 2026-05-05 09:59 | 25.49819 | 74.96748 | 35874 ft | 437 kts | 234° |
| 2026-05-05 10:00 | 25.45750 | 74.91754 | 35877 ft | 437 kts | 234° |
| 2026-05-05 10:00 | 25.41673 | 74.86759 | 35872 ft | 437 kts | 234° |
| 2026-05-05 10:01 | 25.37596 | 74.81767 | 35875 ft | 437 kts | 234° |
| 2026-05-05 10:01 | 25.33515 | 74.76777 | 35871 ft | 438 kts | 234° |
| 2026-05-05 10:02 | 25.29430 | 74.71786 | 35879 ft | 438 kts | 234° |
| 2026-05-05 10:02 | 25.25343 | 74.66798 | 35876 ft | 438 kts | 234° |
| 2026-05-05 10:03 | 25.21250 | 74.61810 | 35873 ft | 438 kts | 234° |
| 2026-05-05 10:03 | 25.17155 | 74.56822 | 35879 ft | 438 kts | 234° |
| 2026-05-05 10:04 | 25.13062 | 74.51838 | 35873 ft | 438 kts | 234° |
| 2026-05-05 10:04 | 25.08967 | 74.46851 | 35876 ft | 439 kts | 234° |
| 2026-05-05 10:05 | 25.04871 | 74.41865 | 35879 ft | 439 kts | 234° |
| 2026-05-05 10:05 | 25.00769 | 74.36880 | 35878 ft | 439 kts | 234° |
| 2026-05-05 10:06 | 24.96666 | 74.31897 | 35880 ft | 439 kts | 234° |
| 2026-05-05 10:06 | 24.92562 | 74.26920 | 35879 ft | 439 kts | 234° |
| 2026-05-05 10:07 | 24.88453 | 74.21941 | 35878 ft | 439 kts | 234° |
| 2026-05-05 10:07 | 24.84341 | 74.16964 | 35879 ft | 439 kts | 234° |
| 2026-05-05 10:08 | 24.80233 | 74.11997 | 35871 ft | 439 kts | 234° |
| 2026-05-05 10:08 | 24.76127 | 74.07038 | 35813 ft | 433 kts | 234° |
| 2026-05-05 10:09 | 24.74121 | 74.04617 | 35458 ft | 426 kts | 234° |
| 2026-05-05 10:09 | 24.72129 | 74.02214 | 34871 ft | 425 kts | 234° |
| 2026-05-05 10:09 | 24.70135 | 73.99811 | 34314 ft | 425 kts | 234° |
| 2026-05-05 10:09 | 24.68145 | 73.97413 | 33775 ft | 424 kts | 234° |
| 2026-05-05 10:10 | 24.66161 | 73.95023 | 33186 ft | 423 kts | 234° |
| 2026-05-05 10:10 | 24.64850 | 73.93443 | 32829 ft | 421 kts | 234° |
| 2026-05-05 10:10 | 24.62215 | 73.90277 | 32147 ft | 418 kts | 233° |
| 2026-05-05 10:10 | 24.59980 | 73.88187 | 31552 ft | 429 kts | 221° |
| 2026-05-05 10:11 | 24.57548 | 73.86325 | 31091 ft | 420 kts | 223° |
| 2026-05-05 10:11 | 24.55996 | 73.85098 | 30803 ft | 412 kts | 223° |
| 2026-05-05 10:11 | 24.53698 | 73.83289 | 30362 ft | 401 kts | 223° |
| 2026-05-05 10:11 | 24.50707 | 73.80944 | 29719 ft | 389 kts | 223° |
| 2026-05-05 10:12 | 24.49259 | 73.79810 | 29373 ft | 383 kts | 223° |
| 2026-05-05 10:12 | 24.47116 | 73.78133 | 28918 ft | 373 kts | 223° |
| 2026-05-05 10:12 | 24.44992 | 73.76471 | 28501 ft | 380 kts | 223° |
| 2026-05-05 10:12 | 24.42822 | 73.74773 | 28066 ft | 385 kts | 222° |
| 2026-05-05 10:13 | 24.40631 | 73.73061 | 27644 ft | 388 kts | 222° |
| 2026-05-05 10:13 | 24.38437 | 73.71348 | 27230 ft | 386 kts | 222° |
| 2026-05-05 10:13 | 24.36252 | 73.69642 | 26819 ft | 384 kts | 222° |
| 2026-05-05 10:13 | 24.34080 | 73.67946 | 26398 ft | 382 kts | 222° |
| 2026-05-05 10:14 | 24.31922 | 73.66262 | 25997 ft | 380 kts | 221° |
| 2026-05-05 10:14 | 24.29770 | 73.64584 | 25595 ft | 378 kts | 221° |
| 2026-05-05 10:14 | 24.27634 | 73.62919 | 25189 ft | 376 kts | 221° |
| 2026-05-05 10:14 | 24.25505 | 73.61260 | 24794 ft | 375 kts | 221° |
| 2026-05-05 10:15 | 24.23387 | 73.59610 | 24396 ft | 373 kts | 221° |
| 2026-05-05 10:15 | 24.21277 | 73.57967 | 24011 ft | 371 kts | 221° |
| 2026-05-05 10:15 | 24.19178 | 73.56334 | 23627 ft | 369 kts | 221° |
| 2026-05-05 10:15 | 24.17086 | 73.54706 | 23202 ft | 368 kts | 220° |
| 2026-05-05 10:16 | 24.15005 | 73.53088 | 22762 ft | 365 kts | 220° |
| 2026-05-05 10:16 | 24.12940 | 73.51484 | 22373 ft | 363 kts | 220° |
| 2026-05-05 10:16 | 24.10890 | 73.49890 | 21998 ft | 360 kts | 220° |
| 2026-05-05 10:16 | 24.08855 | 73.48310 | 21628 ft | 358 kts | 220° |
| 2026-05-05 10:17 | 24.06830 | 73.46738 | 21259 ft | 355 kts | 219° |
| 2026-05-05 10:17 | 24.04824 | 73.45180 | 20893 ft | 352 kts | 219° |
| 2026-05-05 10:17 | 24.02835 | 73.43638 | 20530 ft | 349 kts | 219° |
| 2026-05-05 10:17 | 24.00859 | 73.42106 | 20173 ft | 347 kts | 219° |
| 2026-05-05 10:18 | 23.98898 | 73.40585 | 19817 ft | 344 kts | 219° |
| 2026-05-05 10:18 | 23.96951 | 73.39077 | 19462 ft | 342 kts | 219° |
| 2026-05-05 10:18 | 23.95019 | 73.37580 | 19108 ft | 339 kts | 218° |
| 2026-05-05 10:18 | 23.93104 | 73.36097 | 18765 ft | 337 kts | 218° |
| 2026-05-05 10:19 | 23.91199 | 73.34623 | 18414 ft | 334 kts | 218° |
| 2026-05-05 10:19 | 23.89312 | 73.33162 | 18070 ft | 332 kts | 218° |
| 2026-05-05 10:19 | 23.87433 | 73.31709 | 17680 ft | 330 kts | 218° |
| 2026-05-05 10:19 | 23.85565 | 73.30265 | 17325 ft | 328 kts | 218° |
| 2026-05-05 10:20 | 23.83709 | 73.28830 | 16974 ft | 326 kts | 217° |
| 2026-05-05 10:20 | 23.81861 | 73.27402 | 16639 ft | 325 kts | 217° |
| 2026-05-05 10:20 | 23.80020 | 73.25980 | 16299 ft | 323 kts | 217° |
| 2026-05-05 10:20 | 23.78187 | 73.24564 | 15962 ft | 322 kts | 217° |
| 2026-05-05 10:21 | 23.76360 | 73.23154 | 15622 ft | 320 kts | 217° |
| 2026-05-05 10:21 | 23.74543 | 73.21752 | 15291 ft | 319 kts | 217° |
| 2026-05-05 10:21 | 23.72736 | 73.20358 | 14959 ft | 318 kts | 217° |
| 2026-05-05 10:21 | 23.70940 | 73.18960 | 14620 ft | 316 kts | 217° |
| 2026-05-05 10:22 | 23.69176 | 73.17585 | 14326 ft | 315 kts | 217° |
| 2026-05-05 10:22 | 23.67396 | 73.16197 | 14022 ft | 314 kts | 217° |
| 2026-05-05 10:22 | 23.65624 | 73.14817 | 13727 ft | 313 kts | 217° |
| 2026-05-05 10:22 | 23.63857 | 73.13440 | 13388 ft | 311 kts | 217° |
| 2026-05-05 10:23 | 23.62102 | 73.12073 | 13056 ft | 308 kts | 217° |
| 2026-05-05 10:23 | 23.60391 | 73.10743 | 12749 ft | 296 kts | 218° |
| 2026-05-05 10:23 | 23.58746 | 73.09462 | 12469 ft | 285 kts | 218° |
| 2026-05-05 10:23 | 23.57158 | 73.08228 | 12188 ft | 276 kts | 217° |
| 2026-05-05 10:24 | 23.55622 | 73.07033 | 11916 ft | 267 kts | 217° |
| 2026-05-05 10:24 | 23.54131 | 73.05874 | 11655 ft | 259 kts | 217° |
| 2026-05-05 10:24 | 23.52686 | 73.04751 | 11339 ft | 254 kts | 218° |
| 2026-05-05 10:24 | 23.51241 | 73.03627 | 10877 ft | 256 kts | 217° |
| 2026-05-05 10:25 | 23.49787 | 73.02502 | 10417 ft | 257 kts | 217° |
| 2026-05-05 10:25 | 23.48317 | 73.01393 | 9961 ft | 257 kts | 217° |
| 2026-05-05 10:25 | 23.46872 | 73.00303 | 9497 ft | 258 kts | 217° |
| 2026-05-05 10:25 | 23.45397 | 72.99190 | 8999 ft | 258 kts | 217° |
| 2026-05-05 10:26 | 23.43957 | 72.98034 | 8517 ft | 257 kts | 221° |
| 2026-05-05 10:26 | 23.42575 | 72.96800 | 8040 ft | 257 kts | 221° |
| 2026-05-05 10:26 | 23.41188 | 72.95565 | 7578 ft | 257 kts | 221° |
| 2026-05-05 10:26 | 23.39801 | 72.94332 | 7111 ft | 257 kts | 221° |
| 2026-05-05 10:27 | 23.38414 | 72.93103 | 6652 ft | 257 kts | 221° |
| 2026-05-05 10:27 | 23.37030 | 72.91877 | 6216 ft | 256 kts | 221° |
| 2026-05-05 10:27 | 23.35644 | 72.90650 | 5751 ft | 257 kts | 221° |
| 2026-05-05 10:27 | 23.34264 | 72.89427 | 5286 ft | 255 kts | 221° |
| 2026-05-05 10:28 | 23.32891 | 72.88212 | 4829 ft | 254 kts | 220° |
| 2026-05-05 10:28 | 23.31524 | 72.87003 | 4372 ft | 253 kts | 220° |
| 2026-05-05 10:28 | 23.30177 | 72.85809 | 3902 ft | 253 kts | 220° |
| 2026-05-05 10:28 | 23.28813 | 72.84602 | 3449 ft | 253 kts | 220° |
| 2026-05-05 10:29 | 23.27433 | 72.83383 | 3109 ft | 252 kts | 220° |
| 2026-05-05 10:29 | 23.26091 | 72.82198 | 2618 ft | 251 kts | 220° |
| 2026-05-05 10:29 | 23.24707 | 72.81047 | 2171 ft | 248 kts | 213° |
| 2026-05-05 10:29 | 23.23329 | 72.80039 | 2113 ft | 229 kts | 219° |
| 2026-05-05 10:30 | 23.22186 | 72.78953 | 2090 ft | 208 kts | 224° |
| 2026-05-05 10:30 | 23.21189 | 72.77905 | 2051 ft | 192 kts | 225° |
| 2026-05-05 10:30 | 23.20260 | 72.76903 | 2129 ft | 183 kts | 225° |
| 2026-05-05 10:30 | 23.19374 | 72.75950 | 2095 ft | 176 kts | 226° |
| 2026-05-05 10:31 | 23.18512 | 72.75023 | 2062 ft | 172 kts | 225° |
| 2026-05-05 10:31 | 23.17659 | 72.74106 | 2051 ft | 173 kts | 225° |
| 2026-05-05 10:31 | 23.16813 | 72.73197 | 2013 ft | 167 kts | 225° |
| 2026-05-05 10:31 | 23.16002 | 72.72325 | 2003 ft | 163 kts | 226° |
| 2026-05-05 10:32 | 23.15196 | 72.71459 | 1896 ft | 162 kts | 225° |
| 2026-05-05 10:32 | 23.14414 | 72.70620 | 1723 ft | 154 kts | 225° |
| 2026-05-05 10:32 | 23.13660 | 72.69809 | 1525 ft | 152 kts | 226° |
| 2026-05-05 10:32 | 23.12912 | 72.69006 | 1342 ft | 151 kts | 226° |
| 2026-05-05 10:33 | 23.12173 | 72.68212 | 1157 ft | 147 kts | 225° |
| 2026-05-05 10:33 | 23.11451 | 72.67437 | 945 ft | 145 kts | 226° |
| 2026-05-05 10:33 | 23.10736 | 72.66669 | 753 ft | 144 kts | 226° |
| 2026-05-05 10:33 | 23.10024 | 72.65906 | 574 ft | 144 kts | 225° |
| 2026-05-05 10:34 | 23.09311 | 72.65147 | 380 ft | 143 kts | 225° |
| 2026-05-05 10:34 | 23.08603 | 72.64389 | 210 ft | 139 kts | 225° |
| 2026-05-05 10:34 | 23.08048 | 72.63792 | 203 ft | 88 kts | 224° |
| 2026-05-05 10:34 | 23.07823 | 72.63549 | 202 ft | 19 kts | 236° |
| 2026-05-05 10:35 | 23.07868 | 72.63428 | 194 ft | 12 kts | 310° |
| 2026-05-05 10:35 | 23.07864 | 72.63342 | 202 ft | 14 kts | 227° |
| 2026-05-05 10:35 | 23.07788 | 72.63262 | 198 ft | 17 kts | 224° |
| 2026-05-05 10:35 | 23.07698 | 72.63165 | 197 ft | 20 kts | 225° |
| 2026-05-05 10:36 | 23.07593 | 72.63054 | 198 ft | 22 kts | 224° |
| 2026-05-05 10:36 | 23.07474 | 72.62931 | 198 ft | 20 kts | 224° |
| 2026-05-05 10:36 | 23.07473 | 72.62856 | 202 ft | 12 kts | 314° |
| 2026-05-05 10:36 | 23.07534 | 72.62789 | 206 ft | 10 kts | 313° |
| 2026-05-05 10:37 | 23.07525 | 72.62738 | 195 ft | 12 kts | 226° |
| 2026-05-05 10:37 | 23.07465 | 72.62671 | 196 ft | 13 kts | 226° |
| 2026-05-05 10:37 | 23.07400 | 72.62597 | 191 ft | 15 kts | 226° |
| 2026-05-05 10:37 | 23.07321 | 72.62508 | 189 ft | 18 kts | 226° |
| 2026-05-05 10:38 | 23.07257 | 72.62437 | 192 ft | 10 kts | 225° |
| 2026-05-05 10:38 | 23.07244 | 72.62420 | 187 ft | 2 kts | 244° |
| 2026-05-05 10:38 | 23.07248 | 72.62403 | 186 ft | 3 kts | 308° |
| 2026-05-05 10:38 | 23.07270 | 72.62378 | 199 ft | 5 kts | 314° |
| 2026-05-05 10:39 | 23.07279 | 72.62368 | 187 ft | 0 kts | 314° |